createdAt,value
2022-08-05T00:02:25.125Z,32.52
2022-08-05T00:09:26.859Z,34.01
2022-08-05T00:16:36.497Z,33.37
2022-08-05T00:24:10.791Z,33.89
2022-08-05T00:31:12.855Z,33.95
2022-08-05T00:38:14.753Z,34.38
2022-08-05T00:45:16.429Z,34.74
2022-08-05T00:52:31.013Z,35.16
2022-08-05T00:59:34.741Z,35.47
2022-08-05T01:06:48.774Z,35.75
2022-08-05T01:14:00.031Z,36.48
2022-08-05T01:21:12.395Z,36.68
2022-08-05T01:28:26.483Z,37.24
2022-08-05T01:35:50.757Z,37.57
2022-08-05T01:42:51.152Z,37.91
2022-08-05T01:50:01.628Z,38.54
2022-08-05T01:58:10.636Z,38.71
2022-08-05T02:04:27.032Z,39.59
2022-08-05T02:11:47.751Z,40.30
2022-08-05T02:18:56.818Z,40.89
2022-08-05T02:25:59.797Z,41.27
2022-08-05T02:33:03.686Z,42.17
2022-08-05T02:40:05.824Z,42.41
2022-08-05T02:47:11.191Z,42.85
2022-08-05T02:54:35.602Z,43.20
2022-08-05T03:01:35.346Z,43.88
2022-08-05T03:08:38.126Z,44.71
2022-08-05T03:15:45.288Z,45.20
2022-08-05T03:22:50.058Z,46.17
2022-08-05T03:30:08.414Z,46.62
2022-08-05T03:37:10.643Z,47.25
2022-08-05T03:44:12.287Z,47.95
2022-08-05T03:52:38.086Z,48.71
2022-08-05T03:58:41.089Z,48.62
2022-08-05T04:05:42.901Z,48.90
2022-08-05T04:12:44.633Z,48.98
2022-08-05T04:19:47.063Z,49.02
2022-08-05T04:26:58.266Z,49.26
2022-08-05T04:34:31.870Z,49.83
2022-08-05T04:41:21.599Z,49.89
2022-08-05T04:48:38.277Z,50.14
2022-08-05T04:56:14.783Z,50.95
2022-08-05T05:03:05.714Z,50.67
2022-08-05T05:10:08.432Z,50.85
2022-08-05T05:17:10.065Z,51.27
2022-08-05T05:24:11.688Z,51.45
2022-08-05T05:31:13.900Z,51.57
2022-08-05T05:38:22.935Z,51.59
2022-08-05T05:45:29.336Z,52.05
2022-08-05T05:52:37.973Z,52.30
2022-08-05T05:59:42.134Z,52.09
2022-08-05T06:06:47.722Z,52.05
2022-08-05T06:13:54.122Z,52.01
2022-08-05T06:20:57.109Z,52.41
2022-08-05T06:28:11.342Z,52.76
2022-08-05T06:36:03.776Z,53.31
2022-08-05T06:42:42.014Z,53.31
2022-08-05T06:50:01.354Z,53.72
2022-08-05T06:57:47.196Z,52.60
2022-08-05T07:04:26.908Z,51.50
2022-08-05T07:11:28.816Z,51.33
2022-08-05T07:18:30.869Z,50.67
2022-08-05T07:25:55.464Z,50.81
2022-08-05T07:32:54.343Z,51.70
2022-08-05T07:40:04.567Z,50.69
2022-08-05T07:47:17.602Z,49.33
2022-08-05T07:54:21.954Z,49.68
2022-08-05T08:01:26.571Z,49.77
2022-08-05T08:08:31.571Z,49.64
2022-08-05T08:16:33.845Z,50.16
2022-08-05T08:22:55.977Z,50.24
2022-08-05T08:30:05.983Z,49.31
2022-08-05T08:37:19.299Z,48.76
2022-08-05T08:45:23.212Z,48.36
2022-08-05T08:52:03.969Z,48.31
2022-08-05T08:59:14.730Z,48.60
2022-08-05T09:06:24.187Z,49.69
2022-08-05T09:13:31.424Z,52.03
2022-08-05T09:20:36.729Z,52.62
2022-08-05T09:28:04.669Z,52.44
2022-08-05T09:35:09.230Z,52.20
2022-08-05T09:42:13.616Z,51.09
2022-08-05T09:49:54.678Z,50.71
2022-08-05T09:56:51.622Z,50.20
2022-08-05T10:03:58.641Z,50.73
2022-08-05T10:11:04.438Z,51.42
2022-08-05T10:18:16.644Z,54.19
2022-08-05T10:25:19.060Z,54.85
2022-08-05T10:32:54.990Z,54.31
2022-08-05T10:40:03.280Z,53.91
2022-08-05T10:47:26.025Z,54.37
2022-08-05T10:54:56.861Z,57.02
2022-08-05T11:02:14.554Z,58.41
2022-08-05T11:09:45.517Z,57.38
2022-08-05T11:17:59.587Z,57.21
2022-08-05T11:26:04.343Z,53.98
2022-08-05T11:32:51.658Z,46.60
2022-08-05T11:39:55.636Z,42.21
2022-08-05T11:47:10.945Z,40.12
2022-08-05T11:54:33.457Z,39.29
2022-08-05T12:01:36.085Z,38.14
2022-08-05T12:09:00.427Z,38.55
2022-08-05T12:16:02.204Z,37.61
2022-08-05T12:23:10.756Z,39.26
2022-08-05T12:30:15.464Z,37.98
2022-08-05T12:37:21.578Z,37.10
2022-08-05T12:44:33.305Z,35.47
2022-08-05T12:52:12.131Z,34.71
2022-08-05T12:59:20.759Z,33.44
2022-08-05T13:06:26.039Z,33.43
2022-08-05T13:14:04.753Z,34.35
2022-08-05T13:20:50.370Z,35.83
2022-08-05T13:27:53.540Z,36.92
2022-08-05T13:34:55.352Z,36.44
2022-08-05T13:41:56.949Z,36.07
2022-08-05T13:49:00.928Z,35.36
2022-08-05T13:56:03.366Z,34.85
2022-08-05T14:03:05.081Z,36.22
2022-08-05T14:10:18.774Z,36.71
2022-08-05T14:17:29.882Z,36.50
2022-08-05T14:24:31.602Z,37.39
2022-08-05T14:32:02.333Z,37.99
2022-08-05T14:38:56.822Z,39.21
2022-08-05T14:45:58.678Z,41.80
2022-08-05T14:53:00.791Z,42.00
2022-08-05T15:00:02.977Z,43.09
2022-08-05T15:07:04.607Z,42.82
2022-08-05T15:14:06.294Z,43.79
2022-08-05T15:21:08.651Z,44.84
2022-08-05T15:28:14.446Z,46.28
2022-08-05T15:35:16.499Z,46.62
2022-08-05T15:42:54.186Z,46.68
2022-08-05T15:49:48.018Z,47.61
2022-08-05T15:56:57.060Z,48.61
2022-08-05T16:03:58.673Z,50.06
2022-08-05T16:11:00.295Z,51.82
2022-08-05T16:18:04.132Z,52.56
2022-08-05T16:25:09.436Z,52.57
2022-08-05T16:32:11.681Z,51.79
2022-08-05T16:39:13.451Z,51.55
2022-08-05T16:46:24.185Z,52.60
2022-08-05T16:53:32.158Z,53.16
2022-08-05T17:00:37.714Z,54.62
2022-08-05T17:07:47.279Z,54.22
2022-08-05T17:14:56.400Z,53.47
2022-08-05T17:21:58.460Z,53.57
2022-08-05T17:29:00.162Z,53.92
2022-08-05T17:36:32.729Z,54.02
2022-08-05T17:43:53.181Z,54.14
2022-08-05T17:50:52.854Z,55.00
2022-08-05T17:57:55.739Z,53.00
2022-08-05T18:04:57.433Z,53.85
2022-08-05T18:12:00.471Z,54.42
2022-08-05T18:19:02.635Z,53.80
2022-08-05T18:26:04.795Z,54.17
2022-08-05T18:33:08.414Z,54.44
2022-08-05T18:40:34.094Z,54.55
2022-08-05T18:47:33.862Z,53.92
2022-08-05T18:54:35.573Z,53.92
2022-08-05T19:01:47.936Z,54.70
2022-08-05T19:08:58.311Z,54.66
2022-08-05T19:16:04.075Z,52.49
2022-08-05T19:23:07.896Z,50.74
2022-08-05T19:30:10.207Z,49.98
2022-08-05T19:37:11.826Z,49.56
2022-08-05T19:44:14.206Z,49.77
2022-08-05T19:51:56.602Z,49.87
2022-08-05T19:58:53.074Z,49.23
2022-08-05T20:05:56.744Z,48.75
2022-08-05T20:12:59.627Z,48.28
2022-08-05T20:20:02.038Z,48.46
2022-08-05T20:27:11.572Z,48.52
2022-08-05T20:34:13.367Z,48.84
2022-08-05T20:41:23.874Z,49.12
2022-08-05T20:48:28.823Z,49.36
2022-08-05T20:56:07.827Z,50.50
2022-08-05T21:02:56.052Z,50.81
2022-08-05T21:09:58.980Z,51.33
2022-08-05T21:17:00.709Z,52.25
2022-08-05T21:24:04.476Z,53.07
2022-08-05T21:31:06.487Z,54.08
2022-08-05T21:38:08.156Z,55.27
2022-08-05T21:45:10.853Z,55.59
2022-08-05T21:52:22.459Z,56.11
2022-08-05T21:59:48.140Z,56.70
2022-08-05T22:06:51.879Z,57.47
2022-08-05T22:14:19.802Z,58.11
2022-08-05T22:21:18.971Z,58.68
2022-08-05T22:28:21.460Z,58.60
2022-08-05T22:35:38.547Z,59.82
2022-08-05T22:42:57.757Z,60.45
2022-08-05T22:50:23.202Z,60.53
2022-08-05T22:57:22.226Z,61.76
2022-08-05T23:04:24.868Z,61.44
2022-08-05T23:11:26.919Z,61.41
2022-08-05T23:18:28.785Z,60.62
2022-08-05T23:25:52.295Z,60.26
2022-08-05T23:32:52.251Z,59.01
2022-08-05T23:39:54.967Z,58.83
2022-08-05T23:46:56.798Z,58.03
2022-08-05T23:54:01.128Z,57.54
